Time;durP1;ratioP1;P1;durP2;ratioP2;P2;SDS_P1;SDS_P2;PMS_P1;PMS_P2;Temp;Humidity;BMP_temperature;BMP_pressure;BME280_temperature;BME280_humidity;BME280_pressure;Samples;Min_cycle;Max_cycle;Signal;HPM_P1;HPM_P2
2023/02/26 00:01:19;;;;;;;130.93;101.60;;;22.40;52.40;;;;;;5031488;28;20048;-65
2023/02/26 00:03:49;;;;;;;126.07;97.00;;;22.40;52.50;;;;;;5029790;28;20021;-65
2023/02/26 00:06:15;;;;;;;127.38;97.53;;;22.40;52.50;;;;;;5028774;28;20516;-65
2023/02/26 00:08:40;;;;;;;129.50;99.90;;;22.30;52.40;;;;;;5031573;28;20026;-65
2023/02/26 00:11:07;;;;;;;123.90;97.18;;;22.30;52.40;;;;;;5013876;28;20087;-64
2023/02/26 00:13:34;;;;;;;119.00;94.35;;;22.30;52.40;;;;;;5011686;28;20056;-64
2023/02/26 00:16:01;;;;;;;114.85;90.07;;;22.30;52.40;;;;;;5030342;28;20029;-65
2023/02/26 00:18:27;;;;;;;114.20;88.50;;;22.30;52.40;;;;;;5031017;28;20120;-64
2023/02/26 00:20:53;;;;;;;100.40;78.60;;;22.30;52.40;;;;;;5019737;28;20025;-65
2023/02/26 00:23:19;;;;;;;109.43;85.40;;;22.30;52.50;;;;;;5030757;28;20028;-66
2023/02/26 00:25:46;;;;;;;105.13;81.15;;;22.20;52.40;;;;;;5030595;28;20439;-64
2023/02/26 00:28:12;;;;;;;95.28;75.28;;;22.30;52.50;;;;;;5031059;28;20021;-65
2023/02/26 00:30:38;;;;;;;97.75;74.80;;;22.20;52.50;;;;;;5030154;28;20071;-65
2023/02/26 00:33:04;;;;;;;98.20;76.05;;;22.20;52.50;;;;;;5029711;28;20503;-65
2023/02/26 00:35:30;;;;;;;98.18;75.70;;;22.20;52.50;;;;;;5030906;28;20500;-64
2023/02/26 00:38:11;;;;;;;96.22;74.78;;;22.20;52.50;;;;;;5029006;28;20037;-66
2023/02/26 00:40:45;;;;;;;93.95;72.57;;;22.20;52.50;;;;;;5030220;28;20083;-65
2023/02/26 00:43:25;;;;;;;89.60;68.13;;;22.20;52.50;;;;;;5024486;28;20496;-64
2023/02/26 00:46:15;;;;;;;87.43;67.60;;;22.10;52.40;;;;;;5028167;28;20029;-65
2023/02/26 00:48:54;;;;;;;86.93;67.20;;;22.10;52.40;;;;;;5027604;28;20033;-65
2023/02/26 00:51:36;;;;;;;82.15;63.00;;;22.10;52.50;;;;;;5028526;28;20026;-65
2023/02/26 00:54:15;;;;;;;81.18;61.75;;;22.10;52.50;;;;;;5030251;28;20029;-65
2023/02/26 00:56:40;;;;;;;78.43;60.40;;;22.10;52.50;;;;;;5030106;28;20024;-66
2023/02/26 00:59:06;;;;;;;72.95;55.33;;;22.10;52.60;;;;;;5030822;28;20026;-66
2023/02/26 01:01:31;;;;;;;75.45;57.60;;;22.00;52.50;;;;;;5029383;28;20025;-66
2023/02/26 01:03:57;;;;;;;70.63;55.38;;;22.00;52.60;;;;;;5028868;28;20037;-66
2023/02/26 01:06:27;;;;;;;71.18;53.38;;;22.10;52.60;;;;;;5027887;28;20036;-67
2023/02/26 01:09:03;;;;;;;67.55;53.15;;;22.00;52.60;;;;;;5012427;28;20139;-65
2023/02/26 01:11:29;;;;;;;71.20;55.05;;;22.00;52.60;;;;;;5029967;28;20045;-65
2023/02/26 01:13:54;;;;;;;63.72;50.47;;;22.00;52.60;;;;;;5019270;28;20036;-66
2023/02/26 01:16:26;;;;;;;65.60;48.92;;;22.00;52.60;;;;;;5029961;28;20465;-65
2023/02/26 01:19:19;;;;;;;66.00;49.92;;;22.00;52.60;;;;;;5030660;28;20057;-65
2023/02/26 01:21:51;;;;;;;63.78;49.47;;;22.00;52.60;;;;;;5026643;28;20029;-65
2023/02/26 01:24:21;;;;;;;63.30;47.83;;;21.90;52.60;;;;;;5030075;28;20042;-65
2023/02/26 01:26:48;;;;;;;60.83;47.33;;;21.90;52.60;;;;;;5028471;28;20096;-66
2023/02/26 01:29:14;;;;;;;59.20;46.25;;;21.90;52.60;;;;;;5029139;28;20022;-65
2023/02/26 01:31:56;;;;;;;57.88;44.22;;;21.90;52.60;;;;;;5011982;28;20029;-65
2023/02/26 01:34:30;;;;;;;56.50;43.58;;;21.90;52.60;;;;;;5029721;28;20112;-64
2023/02/26 01:37:03;;;;;;;54.75;42.67;;;21.90;52.60;;;;;;5029946;28;20028;-65
2023/02/26 01:39:41;;;;;;;53.03;41.88;;;21.90;52.70;;;;;;5029460;28;20435;-66
2023/02/26 01:42:27;;;;;;;53.38;39.95;;;21.80;52.60;;;;;;5029339;28;20021;-65
2023/02/26 01:44:55;;;;;;;51.05;39.08;;;21.80;52.60;;;;;;5033639;28;20530;-65
2023/02/26 01:47:44;;;;;;;49.00;38.58;;;21.80;52.70;;;;;;5034191;28;20075;-65
2023/02/26 01:50:24;;;;;;;48.00;36.88;;;21.80;52.70;;;;;;5030174;28;20440;-65
2023/02/26 01:52:50;;;;;;;45.25;35.75;;;21.80;52.70;;;;;;5032269;28;20041;-64
2023/02/26 01:55:23;;;;;;;48.72;36.63;;;21.70;52.70;;;;;;5032327;28;20033;-64
2023/02/26 01:57:51;;;;;;;45.25;36.20;;;21.80;52.80;;;;;;5032380;28;20439;-64
2023/02/26 02:00:17;;;;;;;45.20;35.28;;;21.70;52.70;;;;;;5033026;28;20017;-64
2023/02/26 02:02:43;;;;;;;44.83;34.53;;;21.70;52.70;;;;;;5032683;28;20056;-64
2023/02/26 02:05:26;;;;;;;43.63;33.95;;;21.70;52.70;;;;;;5016450;28;20780;-64
2023/02/26 02:07:52;;;;;;;41.80;33.42;;;21.70;52.80;;;;;;5033960;28;20484;-65
2023/02/26 02:10:18;;;;;;;44.15;33.55;;;21.70;52.70;;;;;;5026325;28;20071;-65
2023/02/26 02:12:50;;;;;;;43.35;33.53;;;21.70;52.70;;;;;;5033511;28;20444;-64
2023/02/26 02:15:24;;;;;;;41.50;32.10;;;21.70;52.70;;;;;;5030844;28;20049;-65
2023/02/26 02:18:17;;;;;;;39.38;30.52;;;21.70;52.80;;;;;;5032783;28;20032;-64
2023/02/26 02:20:51;;;;;;;39.47;29.90;;;21.70;52.70;;;;;;5006847;28;20018;-64
2023/02/26 02:23:29;;;;;;;36.53;29.48;;;21.60;52.70;;;;;;5031227;28;20487;-65
2023/02/26 02:26:14;;;;;;;38.63;29.00;;;21.60;52.70;;;;;;5031313;28;20025;-65
2023/02/26 02:29:03;;;;;;;39.40;29.27;;;21.60;52.80;;;;;;5030538;28;20497;-65
2023/02/26 02:31:45;;;;;;;35.10;27.52;;;21.60;52.70;;;;;;5031706;28;20025;-64
2023/02/26 02:34:23;;;;;;;31.85;25.95;;;21.60;52.80;;;;;;5032823;28;20026;-65
2023/02/26 02:36:51;;;;;;;37.47;27.55;;;21.60;52.80;;;;;;5033246;28;20061;-65
2023/02/26 02:39:34;;;;;;;35.15;26.92;;;21.60;52.80;;;;;;5032648;28;20071;-65
2023/02/26 02:42:08;;;;;;;33.20;25.38;;;21.60;52.80;;;;;;5031722;28;20042;-64
2023/02/26 02:44:38;;;;;;;32.20;24.95;;;21.50;52.70;;;;;;5031092;28;20480;-65
2023/02/26 02:47:06;;;;;;;30.42;24.48;;;21.50;52.80;;;;;;5032108;28;20076;-64
2023/02/26 02:49:45;;;;;;;31.42;24.48;;;21.50;52.80;;;;;;5031595;28;20037;-65
2023/02/26 02:52:16;;;;;;;;;;;21.50;52.80;;;;;;5032733;28;20083;-64
2023/02/26 02:55:05;;;;;;;30.80;23.15;;;21.50;52.80;;;;;;5023308;28;19909;-65
2023/02/26 02:57:47;;;;;;;32.28;23.20;;;21.50;52.80;;;;;;5032448;28;20018;-64
2023/02/26 03:00:15;;;;;;;29.35;23.27;;;21.50;52.80;;;;;;5022357;28;20030;-64
2023/02/26 03:02:55;;;;;;;30.35;22.15;;;21.50;52.80;;;;;;5030398;28;20038;-65
2023/02/26 03:05:21;;;;;;;27.88;21.73;;;21.40;52.80;;;;;;5032247;28;20048;-65
2023/02/26 03:07:59;;;;;;;27.08;20.77;;;21.40;52.80;;;;;;5031125;28;20055;-65
2023/02/26 03:10:25;;;;;;;25.80;19.77;;;21.40;52.80;;;;;;5033006;28;20448;-64
2023/02/26 03:12:50;;;;;;;24.45;19.90;;;21.40;52.80;;;;;;5029246;28;20076;-64
2023/02/26 03:15:20;;;;;;;25.90;19.52;;;21.40;52.80;;;;;;5031713;28;20473;-64
2023/02/26 03:18:05;;;;;;;25.10;18.80;;;21.40;52.80;;;;;;5031038;28;20079;-64
2023/02/26 03:20:36;;;;;;;24.70;18.77;;;21.40;52.90;;;;;;5029408;28;20021;-64
2023/02/26 03:23:15;;;;;;;24.98;19.67;;;21.40;52.80;;;;;;5031944;28;20132;-65
2023/02/26 03:25:59;;;;;;;22.73;17.60;;;21.40;52.90;;;;;;5031690;28;20477;-64
2023/02/26 03:28:47;;;;;;;22.65;17.40;;;21.40;52.90;;;;;;5032146;28;20034;-65
2023/02/26 03:31:19;;;;;;;22.75;17.15;;;21.40;52.90;;;;;;5030851;28;20469;-65
2023/02/26 03:33:58;;;;;;;22.13;17.10;;;21.30;52.80;;;;;;5031207;28;20488;-65
2023/02/26 03:36:47;;;;;;;24.92;18.35;;;21.30;52.90;;;;;;5031557;28;20688;-65
2023/02/26 03:39:22;;;;;;;21.55;16.40;;;21.30;52.90;;;;;;5031300;28;20033;-65
2023/02/26 03:42:01;;;;;;;22.35;16.45;;;21.30;52.90;;;;;;5031341;28;20045;-65
2023/02/26 03:44:32;;;;;;;21.35;15.77;;;21.30;52.90;;;;;;5031615;28;20072;-64
2023/02/26 03:47:02;;;;;;;19.05;14.80;;;21.30;52.90;;;;;;5031052;28;20087;-64
2023/02/26 03:49:37;;;;;;;22.05;16.00;;;21.30;53.00;;;;;;5030804;28;20476;-65
2023/02/26 03:52:04;;;;;;;20.23;15.52;;;21.30;52.90;;;;;;5031508;28;20046;-64
2023/02/26 03:54:37;;;;;;;19.73;15.35;;;21.30;52.90;;;;;;5029720;28;20120;-64
2023/02/26 03:57:03;;;;;;;19.40;14.93;;;21.30;52.90;;;;;;5031452;28;20393;-64
2023/02/26 03:59:30;;;;;;;19.48;14.65;;;21.30;53.00;;;;;;5031029;28;20033;-64
2023/02/26 04:01:58;;;;;;;20.10;15.38;;;21.20;52.90;;;;;;5030853;28;20056;-64
2023/02/26 04:04:42;;;;;;;20.30;14.85;;;21.20;52.90;;;;;;5030686;28;20025;-64
2023/02/26 04:07:13;;;;;;;18.98;14.25;;;21.30;53.00;;;;;;5026159;28;20516;-64
2023/02/26 04:09:44;;;;;;;19.00;14.27;;;21.20;52.90;;;;;;5029614;28;20022;-64
2023/02/26 04:12:10;;;;;;;19.25;14.35;;;21.20;52.90;;;;;;5030032;28;20079;-64
2023/02/26 04:14:36;;;;;;;17.73;13.60;;;21.30;53.00;;;;;;5031104;28;20049;-64
2023/02/26 04:17:02;;;;;;;17.23;13.65;;;21.20;52.90;;;;;;5030986;28;20438;-63
2023/02/26 04:19:27;;;;;;;17.33;13.10;;;21.20;53.00;;;;;;5030282;28;20033;-65
2023/02/26 04:21:53;;;;;;;15.90;12.38;;;21.20;52.90;;;;;;5029600;28;20030;-64
2023/02/26 04:24:18;;;;;;;15.65;11.75;;;21.20;52.90;;;;;;5030810;28;20038;-63
2023/02/26 04:26:51;;;;;;;16.77;12.88;;;21.20;53.00;;;;;;5058894;28;20411;-63
2023/02/26 04:29:17;;;;;;;16.67;12.18;;;21.20;52.90;;;;;;5058250;28;20045;-63
2023/02/26 04:31:42;;;;;;;16.35;12.20;;;21.20;52.90;;;;;;5050957;28;20496;-64
2023/02/26 04:34:08;;;;;;;14.43;11.23;;;21.20;52.90;;;;;;5056358;28;20049;-63
2023/02/26 04:36:34;;;;;;;15.45;11.68;;;21.20;52.90;;;;;;5056255;28;20104;-64
2023/02/26 04:39:00;;;;;;;15.57;11.65;;;21.10;52.90;;;;;;5052809;28;20480;-63
2023/02/26 04:41:25;;;;;;;16.30;12.05;;;21.10;52.90;;;;;;5055961;28;20028;-63
2023/02/26 04:43:51;;;;;;;14.57;11.07;;;21.10;52.90;;;;;;5058595;28;20426;-63
2023/02/26 04:46:16;;;;;;;15.98;11.48;;;21.20;52.90;;;;;;5056209;28;20059;-63
2023/02/26 04:48:42;;;;;;;15.20;10.98;;;21.10;52.90;;;;;;5057910;28;20445;-63
2023/02/26 04:51:08;;;;;;;15.75;11.38;;;21.10;52.90;;;;;;5052551;28;20021;-63
2023/02/26 04:53:33;;;;;;;14.80;10.75;;;21.20;52.90;;;;;;5059908;28;20077;-63
2023/02/26 04:55:59;;;;;;;14.35;10.77;;;21.20;52.90;;;;;;5057136;28;20476;-63
2023/02/26 04:58:25;;;;;;;13.63;10.35;;;21.10;52.80;;;;;;5056510;28;20455;-63
2023/02/26 05:00:53;;;;;;;12.75;9.73;;;21.10;52.90;;;;;;5061580;28;20029;-63
2023/02/26 05:03:19;;;;;;;12.98;10.05;;;21.10;52.90;;;;;;5063493;28;20036;-63
2023/02/26 05:05:45;;;;;;;12.43;9.20;;;21.10;52.90;;;;;;5057785;28;20087;-64
2023/02/26 05:08:10;;;;;;;14.50;10.05;;;21.10;52.90;;;;;;5054717;28;20036;-64
2023/02/26 05:10:36;;;;;;;12.88;9.30;;;21.10;52.90;;;;;;5056153;28;20120;-63
2023/02/26 05:13:02;;;;;;;10.88;8.45;;;21.10;52.90;;;;;;5056289;28;20538;-64
2023/02/26 05:15:28;;;;;;;11.88;8.60;;;21.10;52.90;;;;;;5056024;28;20116;-63
2023/02/26 05:17:53;;;;;;;11.95;8.07;;;21.10;52.90;;;;;;5053112;28;20029;-63
2023/02/26 05:20:19;;;;;;;10.60;7.53;;;21.10;52.90;;;;;;5058420;28;20036;-63
2023/02/26 05:22:45;;;;;;;10.63;8.25;;;21.10;53.00;;;;;;5057004;28;20025;-64
2023/02/26 05:25:13;;;;;;;10.48;7.95;;;21.10;53.00;;;;;;5056710;28;20035;-63
2023/02/26 05:27:41;;;;;;;10.57;7.88;;;21.00;52.90;;;;;;5056074;28;20051;-63
2023/02/26 05:30:07;;;;;;;10.60;8.55;;;21.10;53.00;;;;;;5057327;28;20028;-64
2023/02/26 05:32:33;;;;;;;11.23;7.65;;;21.10;53.00;;;;;;5053173;28;20061;-63
2023/02/26 05:34:59;;;;;;;9.90;7.22;;;21.00;52.90;;;;;;5054452;28;20110;-63
2023/02/26 05:37:24;;;;;;;9.82;7.20;;;21.00;52.90;;;;;;5050182;28;20030;-64
2023/02/26 05:39:50;;;;;;;10.23;7.35;;;21.10;53.00;;;;;;5044162;28;20575;-64
2023/02/26 05:42:15;;;;;;;9.95;7.28;;;21.10;53.00;;;;;;5041347;28;20033;-63
2023/02/26 05:44:41;;;;;;;9.02;6.72;;;21.00;53.00;;;;;;5044408;28;20082;-63
2023/02/26 05:47:07;;;;;;;9.48;7.03;;;21.00;53.00;;;;;;5042930;28;20606;-63
2023/02/26 05:49:32;;;;;;;9.23;6.72;;;21.00;53.50;;;;;;5041729;28;20451;-63
2023/02/26 05:51:58;;;;;;;9.70;6.50;;;21.00;53.00;;;;;;5040910;28;20087;-64
2023/02/26 05:54:23;;;;;;;8.80;6.68;;;21.00;53.00;;;;;;5042683;28;20025;-64
2023/02/26 05:56:49;;;;;;;8.30;6.55;;;21.00;53.00;;;;;;5040495;28;20033;-63
2023/02/26 05:59:16;;;;;;;9.60;6.35;;;21.00;53.00;;;;;;5038544;28;20447;-64
2023/02/26 06:01:41;;;;;;;7.93;6.22;;;21.00;53.00;;;;;;5041219;28;20510;-64
2023/02/26 06:04:07;;;;;;;9.32;6.13;;;21.00;53.00;;;;;;5039794;28;20025;-63
2023/02/26 06:06:34;;;;;;;8.23;6.00;;;21.00;53.00;;;;;;5040479;28;20035;-63
2023/02/26 06:09:01;;;;;;;7.95;5.90;;;21.00;53.00;;;;;;5043980;28;20108;-63
2023/02/26 06:11:30;;;;;;;8.93;6.13;;;21.00;53.00;;;;;;5041327;28;20021;-63
2023/02/26 06:13:55;;;;;;;7.97;5.72;;;21.00;53.00;;;;;;5041746;28;20026;-63
2023/02/26 06:16:22;;;;;;;8.45;5.88;;;21.00;53.60;;;;;;5036221;28;20044;-63
2023/02/26 06:18:48;;;;;;;8.93;6.28;;;21.00;53.00;;;;;;5038085;28;20037;-63
2023/02/26 06:21:14;;;;;;;7.13;5.22;;;21.00;53.00;;;;;;5042664;28;20038;-63
2023/02/26 06:23:40;;;;;;;7.95;5.80;;;21.00;53.00;;;;;;5040886;28;20386;-63
2023/02/26 06:26:05;;;;;;;6.78;5.63;;;21.00;53.10;;;;;;5043388;28;20527;-63
2023/02/26 06:28:32;;;;;;;7.90;5.95;;;21.00;53.00;;;;;;5038851;28;20096;-63
2023/02/26 06:30:57;;;;;;;8.10;5.30;;;20.90;53.00;;;;;;5038079;28;20018;-63
2023/02/26 06:33:24;;;;;;;7.25;5.45;;;20.90;53.00;;;;;;5044867;28;20029;-63
2023/02/26 06:35:50;;;;;;;6.90;5.30;;;20.90;53.00;;;;;;5042748;28;20029;-63
2023/02/26 06:38:16;;;;;;;7.47;5.10;;;20.90;53.00;;;;;;5041645;28;20036;-63
2023/02/26 06:40:42;;;;;;;7.35;4.97;;;20.90;53.00;;;;;;5041955;28;20110;-63
2023/02/26 06:43:07;;;;;;;6.15;4.68;;;20.90;53.50;;;;;;5041089;28;20065;-63
2023/02/26 06:45:33;;;;;;;6.88;4.68;;;20.90;53.00;;;;;;5041913;28;20473;-63
2023/02/26 06:47:58;;;;;;;6.38;4.90;;;20.90;53.00;;;;;;5040613;28;20108;-63
2023/02/26 06:50:24;;;;;;;6.70;4.82;;;20.90;53.00;;;;;;5040202;28;20025;-63
2023/02/26 06:52:50;;;;;;;6.72;4.65;;;20.90;53.00;;;;;;5039887;28;20044;-64
2023/02/26 06:55:15;;;;;;;6.38;5.05;;;20.90;53.00;;;;;;5040467;28;20037;-63
2023/02/26 06:57:41;;;;;;;6.00;4.53;;;20.90;53.00;;;;;;5038937;28;20551;-63
2023/02/26 07:00:07;;;;;;;6.47;4.35;;;20.90;53.00;;;;;;5040490;28;20025;-63
2023/02/26 07:02:33;;;;;;;5.88;4.28;;;20.90;53.00;;;;;;5040938;28;20495;-64
2023/02/26 07:04:58;;;;;;;6.30;4.40;;;20.90;53.00;;;;;;5044612;28;20029;-63
2023/02/26 07:07:24;;;;;;;5.93;4.50;;;20.90;53.00;;;;;;5039097;28;20025;-63
2023/02/26 07:09:50;;;;;;;6.25;4.20;;;20.90;53.00;;;;;;5037725;28;20500;-63
2023/02/26 07:12:15;;;;;;;5.75;4.03;;;20.90;53.00;;;;;;5037724;28;20029;-63
2023/02/26 07:14:44;;;;;;;6.68;4.65;;;20.90;53.00;;;;;;5041966;28;20032;-64
2023/02/26 07:17:19;;;;;;;5.43;4.00;;;20.80;53.00;;;;;;5037519;28;20104;-64
2023/02/26 07:19:45;;;;;;;5.85;4.20;;;20.90;53.10;;;;;;5040833;28;20030;-64
2023/02/26 07:22:11;;;;;;;5.47;4.10;;;20.90;53.00;;;;;;5041593;28;20056;-63
2023/02/26 07:24:37;;;;;;;5.53;3.88;;;20.80;53.00;;;;;;5039674;28;20068;-63
2023/02/26 07:27:02;;;;;;;5.22;3.75;;;20.80;53.00;;;;;;5039878;28;20033;-64
2023/02/26 07:29:28;;;;;;;5.10;3.50;;;20.80;53.00;;;;;;5048391;28;20502;-63
2023/02/26 07:31:54;;;;;;;5.53;3.85;;;20.80;53.00;;;;;;5038496;28;20029;-64
2023/02/26 07:34:19;;;;;;;5.15;3.60;;;20.80;53.00;;;;;;5040671;28;20017;-63
2023/02/26 07:36:45;;;;;;;5.20;3.80;;;20.80;53.00;;;;;;5043388;28;20028;-64
2023/02/26 07:39:11;;;;;;;4.47;3.35;;;20.80;53.00;;;;;;5040204;28;20029;-63
2023/02/26 07:41:36;;;;;;;5.07;3.53;;;20.80;53.00;;;;;;5038019;28;20095;-64
2023/02/26 07:44:02;;;;;;;4.88;3.20;;;20.80;53.10;;;;;;5042062;28;20025;-63
2023/02/26 07:46:28;;;;;;;5.00;3.42;;;20.80;53.10;;;;;;5037616;28;20436;-63
2023/02/26 07:48:53;;;;;;;4.85;3.30;;;20.80;53.00;;;;;;5041097;28;20037;-63
2023/02/26 07:51:19;;;;;;;4.68;3.40;;;20.80;53.10;;;;;;5041088;28;20365;-63
2023/02/26 07:53:44;;;;;;;4.78;3.20;;;20.80;53.10;;;;;;5038402;28;20033;-63
2023/02/26 07:56:10;;;;;;;4.65;3.13;;;20.80;53.20;;;;;;5036348;28;20480;-63
2023/02/26 07:58:35;;;;;;;4.50;2.85;;;20.80;53.40;;;;;;5039347;28;20462;-63
2023/02/26 08:01:01;;;;;;;3.88;2.72;;;20.80;53.60;;;;;;5041558;28;20025;-63
2023/02/26 08:03:27;;;;;;;4.60;2.80;;;20.80;53.70;;;;;;5041141;28;20029;-63
2023/02/26 08:05:52;;;;;;;4.07;2.80;;;20.90;53.80;;;;;;5039816;28;20063;-63
2023/02/26 08:08:18;;;;;;;4.75;2.90;;;20.90;53.80;;;;;;5043127;28;20010;-63
2023/02/26 08:10:43;;;;;;;4.05;2.97;;;20.90;53.90;;;;;;5041200;28;20482;-64
2023/02/26 08:13:09;;;;;;;4.10;2.75;;;20.80;53.90;;;;;;5039954;28;20022;-64
2023/02/26 08:15:35;;;;;;;4.80;2.85;;;20.90;54.00;;;;;;5039527;28;20107;-64
2023/02/26 08:18:01;;;;;;;4.25;2.67;;;20.90;54.00;;;;;;5037831;28;20028;-64
2023/02/26 08:20:26;;;;;;;3.60;2.70;;;20.80;54.50;;;;;;5037516;28;20067;-65
2023/02/26 08:22:52;;;;;;;4.22;2.83;;;20.80;54.00;;;;;;5038344;28;20037;-65
2023/02/26 08:25:18;;;;;;;4.95;2.92;;;20.80;54.00;;;;;;5039327;28;20033;-65
2023/02/26 08:27:44;;;;;;;3.47;2.45;;;20.80;53.90;;;;;;5040709;28;20499;-65
2023/02/26 08:30:10;;;;;;;4.65;2.42;;;20.80;53.90;;;;;;5038846;28;20025;-64
2023/02/26 08:32:38;;;;;;;5.20;3.05;;;20.80;53.80;;;;;;5040268;28;20097;-65
2023/02/26 08:35:04;;;;;;;3.58;2.20;;;20.80;53.80;;;;;;5038479;28;20139;-65
2023/02/26 08:37:30;;;;;;;3.67;2.25;;;20.80;53.80;;;;;;5039624;28;20151;-65
2023/02/26 08:39:56;;;;;;;4.03;2.60;;;20.80;53.80;;;;;;5040160;28;20112;-64
2023/02/26 08:42:21;;;;;;;3.65;2.40;;;20.80;53.80;;;;;;5039926;28;20025;-64
2023/02/26 08:44:47;;;;;;;3.90;2.45;;;20.80;53.70;;;;;;5038933;28;20036;-65
2023/02/26 08:47:13;;;;;;;3.70;2.40;;;20.80;53.80;;;;;;5037787;28;20543;-65
2023/02/26 08:49:38;;;;;;;4.18;2.45;;;20.80;53.70;;;;;;5040064;28;20104;-64
2023/02/26 08:52:04;;;;;;;3.50;2.50;;;20.80;53.70;;;;;;5040354;28;20465;-65
2023/02/26 08:54:30;;;;;;;3.40;2.13;;;20.80;53.70;;;;;;5039172;28;20469;-64
2023/02/26 08:56:56;;;;;;;3.22;2.10;;;20.80;53.70;;;;;;5036480;28;20029;-64
2023/02/26 08:59:23;;;;;;;3.42;2.10;;;20.80;53.70;;;;;;5039753;28;20051;-64
2023/02/26 09:01:50;;;;;;;3.00;2.00;;;20.80;53.60;;;;;;5040424;28;20113;-64
2023/02/26 09:04:16;;;;;;;3.15;2.10;;;20.80;53.60;;;;;;5040273;28;20538;-65
2023/02/26 09:06:42;;;;;;;3.20;2.10;;;20.80;53.60;;;;;;5040929;28;20455;-65
2023/02/26 09:09:07;;;;;;;3.53;2.20;;;20.80;53.60;;;;;;5036860;28;20049;-64
2023/02/26 09:11:33;;;;;;;3.55;2.05;;;20.80;53.60;;;;;;5038912;28;20036;-65
2023/02/26 09:14:01;;;;;;;3.20;2.00;;;20.80;53.60;;;;;;5041293;28;20021;-64
2023/02/26 09:16:26;;;;;;;3.53;2.10;;;20.80;53.60;;;;;;5042402;28;20036;-64
2023/02/26 09:18:52;;;;;;;3.35;1.90;;;20.80;53.50;;;;;;5043033;28;20025;-65
2023/02/26 09:21:17;;;;;;;3.30;2.13;;;20.70;53.50;;;;;;5041019;28;20055;-65
2023/02/26 09:23:43;;;;;;;3.53;1.92;;;20.80;53.50;;;;;;5039160;28;20033;-65
2023/02/26 09:26:09;;;;;;;3.38;2.00;;;20.80;53.50;;;;;;5042521;28;20036;-65
2023/02/26 09:28:34;;;;;;;3.08;2.00;;;20.70;53.50;;;;;;5041729;28;20729;-64
2023/02/26 09:31:00;;;;;;;2.78;1.60;;;20.80;53.50;;;;;;5038977;28;20021;-65
2023/02/26 09:33:26;;;;;;;3.03;1.77;;;20.80;54.10;;;;;;5041130;28;20029;-65
2023/02/26 09:35:51;;;;;;;2.80;1.90;;;20.80;53.50;;;;;;5044464;28;20029;-65
2023/02/26 09:38:18;;;;;;;3.45;2.10;;;20.70;53.40;;;;;;5042545;28;20051;-65
2023/02/26 09:40:47;;;;;;;3.00;2.17;;;20.70;53.40;;;;;;5042524;28;20033;-64
2023/02/26 09:43:52;;;;;;;3.00;2.03;;;20.70;53.40;;;;;;5041574;28;20496;-64
2023/02/26 09:46:42;;;;;;;3.33;2.22;;;20.70;53.40;;;;;;5041556;28;20030;-64
2023/02/26 09:49:30;;;;;;;2.83;1.77;;;20.70;53.40;;;;;;5037479;28;20030;-64
2023/02/26 09:52:28;;;;;;;2.60;1.67;;;20.70;53.40;;;;;;5042119;28;20057;-64
2023/02/26 09:54:58;;;;;;;2.65;1.75;;;20.70;53.40;;;;;;5040443;28;20052;-64
2023/02/26 09:57:31;;;;;;;2.90;1.80;;;20.70;53.40;;;;;;5039385;28;20028;-64
2023/02/26 09:59:59;;;;;;;2.92;1.90;;;20.70;53.40;;;;;;5043842;28;20034;-64
2023/02/26 10:03:06;;;;;;;2.70;1.60;;;20.70;53.40;;;;;;5044072;28;20499;-64
2023/02/26 10:05:49;;;;;;;3.55;2.03;;;20.70;53.40;;;;;;5040283;28;20032;-65
2023/02/26 10:08:17;;;;;;;2.95;1.65;;;20.70;53.40;;;;;;5043462;28;20473;-64
2023/02/26 10:11:32;;;;;;;3.33;1.55;;;20.70;53.50;;;;;;5043783;28;20026;-63
2023/02/26 10:14:03;;;;;;;2.40;1.60;;;20.80;53.60;;;;;;5032371;28;20033;-64
2023/02/26 10:16:34;;;;;;;2.88;1.77;;;20.80;53.50;;;;;;5040597;28;20535;-63
2023/02/26 10:19:07;;;;;;;2.80;1.80;;;20.80;53.50;;;;;;5061088;28;20141;-64
2023/02/26 10:21:36;;;;;;;2.85;1.70;;;20.80;53.50;;;;;;5046603;28;20040;-63
2023/02/26 10:24:09;;;;;;;2.90;1.85;;;20.70;53.40;;;;;;5038865;28;20029;-64
2023/02/26 10:26:43;;;;;;;2.75;1.75;;;20.80;53.40;;;;;;5041557;28;20033;-64
2023/02/26 10:29:50;;;;;;;2.72;1.75;;;20.80;53.50;;;;;;5041598;28;20149;-63
2023/02/26 10:32:27;;;;;;;2.60;1.70;;;20.70;53.50;;;;;;5027490;28;20042;-64
2023/02/26 10:34:52;;;;;;;3.03;1.80;;;20.70;53.50;;;;;;5041097;28;20111;-64
2023/02/26 10:37:37;;;;;;;2.75;1.85;;;20.70;53.50;;;;;;5043191;28;20032;-64
2023/02/26 10:40:16;;;;;;;3.10;1.92;;;20.70;53.60;;;;;;5042322;28;20025;-64
2023/02/26 10:43:09;;;;;;;3.65;2.08;;;20.70;53.60;;;;;;5071510;28;20029;-65
2023/02/26 10:46:16;;;;;;;3.33;1.70;;;20.70;53.60;;;;;;5037509;28;20420;-63
2023/02/26 10:49:04;;;;;;;3.90;2.22;;;20.70;53.60;;;;;;5043809;28;20017;-63
2023/02/26 10:51:38;;;;;;;2.97;2.00;;;20.70;53.70;;;;;;5041940;28;20021;-63
2023/02/26 10:54:25;;;;;;;3.75;2.00;;;20.70;53.80;;;;;;5043627;28;20028;-63
2023/02/26 10:56:51;;;;;;;2.70;1.80;;;20.70;53.80;;;;;;5039090;28;20033;-63
2023/02/26 10:59:16;;;;;;;3.10;2.03;;;20.70;53.80;;;;;;5040833;28;20087;-64
2023/02/26 11:01:42;;;;;;;3.25;1.83;;;20.70;53.90;;;;;;5037327;28;20109;-64
2023/02/26 11:04:12;;;;;;;3.33;2.15;;;20.60;53.80;;;;;;5042804;28;20033;-63
2023/02/26 11:07:00;;;;;;;3.25;2.08;;;20.70;53.90;;;;;;5040930;28;20025;-63
2023/02/26 11:09:37;;;;;;;2.97;2.05;;;20.70;53.90;;;;;;5042745;28;20049;-63
2023/02/26 11:12:11;;;;;;;3.03;1.88;;;20.70;54.10;;;;;;5072653;28;20033;-63
2023/02/26 11:14:38;;;;;;;2.97;1.88;;;20.70;54.10;;;;;;5039426;28;20075;-63
2023/02/26 11:17:10;;;;;;;3.10;2.05;;;20.70;54.10;;;;;;5042832;28;20021;-64
2023/02/26 11:19:39;;;;;;;3.20;2.03;;;20.70;54.10;;;;;;5044486;28;20087;-63
2023/02/26 11:22:08;;;;;;;3.40;2.10;;;20.70;54.10;;;;;;5056595;28;20060;-63
2023/02/26 11:24:45;;;;;;;3.75;2.15;;;20.70;54.20;;;;;;5040712;28;20033;-64
2023/02/26 11:27:14;;;;;;;3.25;2.25;;;20.70;54.30;;;;;;5039221;28;20100;-63
2023/02/26 11:29:45;;;;;;;3.15;1.98;;;20.70;54.40;;;;;;5039874;28;20055;-63
2023/02/26 11:32:20;;;;;;;3.30;2.08;;;20.70;54.30;;;;;;5038135;28;20086;-64
2023/02/26 11:34:48;;;;;;;3.30;2.10;;;20.70;54.40;;;;;;5038361;28;20021;-64
2023/02/26 11:37:19;;;;;;;3.47;1.80;;;20.70;54.30;;;;;;5039383;28;20030;-64
2023/02/26 11:39:46;;;;;;;4.50;2.47;;;20.70;54.30;;;;;;5041015;28;20075;-63
2023/02/26 11:42:13;;;;;;;3.45;1.98;;;20.70;54.60;;;;;;5042887;28;20025;-63
2023/02/26 11:44:44;;;;;;;3.65;2.03;;;20.70;54.90;;;;;;5040891;28;20028;-63
2023/02/26 11:47:16;;;;;;;3.88;2.03;;;20.60;55.00;;;;;;5039505;28;20033;-63
2023/02/26 11:49:48;;;;;;;3.70;2.10;;;20.70;55.20;;;;;;5038200;28;20017;-64
2023/02/26 11:52:17;;;;;;;5.03;2.00;;;20.70;55.20;;;;;;5039995;28;20028;-63
2023/02/26 11:54:48;;;;;;;2.97;1.77;;;20.70;55.20;;;;;;5040321;28;20029;-63
2023/02/26 11:57:25;;;;;;;3.10;1.85;;;20.70;55.20;;;;;;5041755;28;20029;-62
2023/02/26 11:59:52;;;;;;;3.08;1.85;;;20.60;55.20;;;;;;5043941;28;20481;-63
2023/02/26 12:02:22;;;;;;;2.13;1.50;;;20.70;55.20;;;;;;5039387;28;20425;-63
2023/02/26 12:04:52;;;;;;;2.83;1.63;;;20.70;55.20;;;;;;5040921;28;20432;-63
2023/02/26 12:07:20;;;;;;;3.17;1.45;;;20.70;55.10;;;;;;5036978;28;20427;-62
2023/02/26 12:09:47;;;;;;;3.55;1.75;;;20.70;55.00;;;;;;5039000;28;20036;-63
2023/02/26 12:12:31;;;;;;;2.00;1.30;;;20.70;55.00;;;;;;5038601;28;20025;-63
2023/02/26 12:15:00;;;;;;;2.97;1.45;;;20.70;55.00;;;;;;5039753;28;20032;-63
2023/02/26 12:18:00;;;;;;;2.35;1.30;;;20.70;55.00;;;;;;5039468;28;20053;-63
2023/02/26 12:20:46;;;;;;;2.78;1.50;;;20.70;55.00;;;;;;5024249;28;20044;-63
2023/02/26 12:23:36;;;;;;;2.00;1.30;;;20.70;55.00;;;;;;5042604;28;20481;-63
2023/02/26 12:26:14;;;;;;;2.90;1.50;;;20.70;55.00;;;;;;5040635;28;20396;-63
2023/02/26 12:29:10;;;;;;;3.45;1.48;;;20.70;55.00;;;;;;5039978;28;20021;-63
2023/02/26 12:32:00;;;;;;;1.50;1.00;;;20.80;55.10;;;;;;5040772;28;20056;-63
2023/02/26 12:34:31;;;;;;;1.98;1.30;;;20.80;55.00;;;;;;5040215;28;20031;-63
2023/02/26 12:37:15;;;;;;;2.03;1.10;;;20.70;54.90;;;;;;5036828;28;20485;-63
2023/02/26 12:39:52;;;;;;;1.65;1.17;;;20.80;54.90;;;;;;5041192;28;20040;-64
2023/02/26 12:42:45;;;;;;;2.45;1.50;;;20.80;54.90;;;;;;5040229;28;20463;-65
2023/02/26 12:45:15;;;;;;;2.70;1.50;;;20.80;54.90;;;;;;5039658;28;20493;-65
2023/02/26 12:48:05;;;;;;;2.83;1.38;;;20.80;54.80;;;;;;5040763;28;20022;-65
2023/02/26 12:50:49;;;;;;;1.92;1.20;;;20.70;54.80;;;;;;5043466;28;20025;-65
2023/02/26 12:53:40;;;;;;;2.20;1.17;;;20.70;54.70;;;;;;5041402;28;20030;-66
2023/02/26 12:56:30;;;;;;;1.98;1.23;;;20.70;54.70;;;;;;5042813;28;20116;-65
2023/02/26 12:59:16;;;;;;;2.85;1.48;;;20.70;54.70;;;;;;5039742;28;20713;-65